sensor_id;sensor_type;location;lat;lon;timestamp;pressure;altitude;pressure_sealevel;temperature;humidity
6680;BME280;3376;42.664;23.346;2023-03-21T00:02:20;94375.84;;;12.55;61.88
6680;BME280;3376;42.664;23.346;2023-03-21T00:04:48;94309.97;;;12.01;61.35
6680;BME280;3376;42.664;23.346;2023-03-21T00:07:15;94370.84;;;12.26;61.69
6680;BME280;3376;42.664;23.346;2023-03-21T00:09:42;94378.81;;;12.18;63.03
6680;BME280;3376;42.664;23.346;2023-03-21T00:12:08;94379.53;;;12.12;63.58
6680;BME280;3376;42.664;23.346;2023-03-21T00:14:36;94382.09;;;12.06;63.66
6680;BME280;3376;42.664;23.346;2023-03-21T00:17:03;94378.41;;;12.21;63.80
6680;BME280;3376;42.664;23.346;2023-03-21T00:19:31;94376.19;;;12.18;64.00
6680;BME280;3376;42.664;23.346;2023-03-21T00:22:03;94378.31;;;12.08;64.80
6680;BME280;3376;42.664;23.346;2023-03-21T00:24:30;94367.03;;;11.95;65.13
6680;BME280;3376;42.664;23.346;2023-03-21T00:26:57;94322.09;;;11.52;65.83
6680;BME280;3376;42.664;23.346;2023-03-21T00:29:23;94370.69;;;11.79;66.16
6680;BME280;3376;42.664;23.346;2023-03-21T00:31:50;94370.44;;;11.74;66.88
6680;BME280;3376;42.664;23.346;2023-03-21T00:34:17;94374.88;;;11.80;66.79
6680;BME280;3376;42.664;23.346;2023-03-21T00:36:45;94376.75;;;11.86;66.54
6680;BME280;3376;42.664;23.346;2023-03-21T00:39:11;94378.91;;;11.82;66.79
6680;BME280;3376;42.664;23.346;2023-03-21T00:41:38;94381.22;;;11.77;67.23
6680;BME280;3376;42.664;23.346;2023-03-21T00:44:05;94382.03;;;11.78;67.26
6680;BME280;3376;42.664;23.346;2023-03-21T00:46:32;94364.81;;;11.70;67.96
6680;BME280;3376;42.664;23.346;2023-03-21T00:49:00;94371.28;;;11.81;67.70
6680;BME280;3376;42.664;23.346;2023-03-21T00:51:26;94357.63;;;11.72;67.87
6680;BME280;3376;42.664;23.346;2023-03-21T00:53:56;94347.44;;;11.71;67.52
6680;BME280;3376;42.664;23.346;2023-03-21T00:56:23;94320.31;;;11.52;67.72
6680;BME280;3376;42.664;23.346;2023-03-21T00:58:50;94362.66;;;11.74;67.92
6680;BME280;3376;42.664;23.346;2023-03-21T01:01:17;94331.13;;;11.56;67.75
6680;BME280;3376;42.664;23.346;2023-03-21T01:03:44;94338.63;;;11.65;67.59
6680;BME280;3376;42.664;23.346;2023-03-21T01:06:12;94362.38;;;11.69;68.28
6680;BME280;3376;42.664;23.346;2023-03-21T01:08:44;94366.22;;;11.73;68.17
6680;BME280;3376;42.664;23.346;2023-03-21T01:11:14;94362.66;;;11.74;68.25
6680;BME280;3376;42.664;23.346;2023-03-21T01:13:42;94364.13;;;11.83;67.98
6680;BME280;3376;42.664;23.346;2023-03-21T01:16:09;94362.28;;;11.77;68.16
6680;BME280;3376;42.664;23.346;2023-03-21T01:18:38;94339.75;;;11.63;68.11
6680;BME280;3376;42.664;23.346;2023-03-21T01:21:08;94351.94;;;11.62;68.48
6680;BME280;3376;42.664;23.346;2023-03-21T01:23:36;94357.31;;;11.61;68.51
6680;BME280;3376;42.664;23.346;2023-03-21T01:26:03;94341.38;;;11.43;69.09
6680;BME280;3376;42.664;23.346;2023-03-21T01:28:33;94359.28;;;11.38;69.82
6680;BME280;3376;42.664;23.346;2023-03-21T01:31:01;94368.09;;;11.43;69.74
6680;BME280;3376;42.664;23.346;2023-03-21T01:33:29;94361.34;;;11.28;71.22
6680;BME280;3376;42.664;23.346;2023-03-21T01:35:56;94334.97;;;11.03;71.27
6680;BME280;3376;42.664;23.346;2023-03-21T01:38:23;94362.41;;;11.12;71.50
6680;BME280;3376;42.664;23.346;2023-03-21T01:40:50;94351.69;;;11.01;71.90
6680;BME280;3376;42.664;23.346;2023-03-21T01:43:24;94346.16;;;11.04;71.83
6680;BME280;3376;42.664;23.346;2023-03-21T01:48:54;94351.88;;;10.99;72.32
6680;BME280;3376;42.664;23.346;2023-03-21T01:51:23;94356.34;;;10.91;72.32
6680;BME280;3376;42.664;23.346;2023-03-21T01:53:52;94351.53;;;10.88;72.69
6680;BME280;3376;42.664;23.346;2023-03-21T01:56:23;94352.69;;;10.85;72.73
6680;BME280;3376;42.664;23.346;2023-03-21T01:58:52;94338.50;;;10.66;72.79
6680;BME280;3376;42.664;23.346;2023-03-21T02:01:22;94343.31;;;10.69;73.06
6680;BME280;3376;42.664;23.346;2023-03-21T02:03:50;94351.72;;;10.72;73.09
6680;BME280;3376;42.664;23.346;2023-03-21T02:06:23;94351.38;;;10.75;73.01
6680;BME280;3376;42.664;23.346;2023-03-21T02:08:55;94346.09;;;10.68;73.60
6680;BME280;3376;42.664;23.346;2023-03-21T02:11:22;94350.56;;;10.74;73.57
6680;BME280;3376;42.664;23.346;2023-03-21T02:13:51;94339.31;;;10.67;73.61
6680;BME280;3376;42.664;23.346;2023-03-21T02:16:28;94340.84;;;10.61;73.79
6680;BME280;3376;42.664;23.346;2023-03-21T02:19:06;94338.34;;;10.53;73.77
6680;BME280;3376;42.664;23.346;2023-03-21T02:25:02;94340.06;;;10.46;75.64
6680;BME280;3376;42.664;23.346;2023-03-21T02:27:36;94344.50;;;10.52;74.73
6680;BME280;3376;42.664;23.346;2023-03-21T02:33:40;94326.66;;;10.57;73.73
6680;BME280;3376;42.664;23.346;2023-03-21T02:36:21;94337.56;;;10.38;74.01
6680;BME280;3376;42.664;23.346;2023-03-21T02:38:54;94340.59;;;10.42;74.73
6680;BME280;3376;42.664;23.346;2023-03-21T02:41:29;94338.34;;;10.39;75.47
6680;BME280;3376;42.664;23.346;2023-03-21T02:44:06;94318.09;;;10.28;75.45
6680;BME280;3376;42.664;23.346;2023-03-21T02:46:38;94333.69;;;10.49;74.28
6680;BME280;3376;42.664;23.346;2023-03-21T02:49:11;94335.22;;;10.43;73.65
6680;BME280;3376;42.664;23.346;2023-03-21T02:51:42;94338.53;;;10.37;74.57
6680;BME280;3376;42.664;23.346;2023-03-21T02:54:14;94323.91;;;10.30;75.03
6680;BME280;3376;42.664;23.346;2023-03-21T02:56:43;94328.44;;;10.28;75.16
6680;BME280;3376;42.664;23.346;2023-03-21T02:59:11;94323.72;;;10.31;75.50
6680;BME280;3376;42.664;23.346;2023-03-21T03:01:40;94327.91;;;10.32;75.70
6680;BME280;3376;42.664;23.346;2023-03-21T03:04:17;94330.13;;;10.35;76.06
6680;BME280;3376;42.664;23.346;2023-03-21T03:06:53;94297.75;;;10.25;75.46
6680;BME280;3376;42.664;23.346;2023-03-21T03:09:33;94336.72;;;10.52;75.18
6680;BME280;3376;42.664;23.346;2023-03-21T03:12:11;94334.44;;;10.57;74.95
6680;BME280;3376;42.664;23.346;2023-03-21T03:14:49;94338.88;;;10.63;74.56
6680;BME280;3376;42.664;23.346;2023-03-21T03:17:25;94325.66;;;10.44;74.74
6680;BME280;3376;42.664;23.346;2023-03-21T03:20:09;94322.81;;;10.39;75.36
6680;BME280;3376;42.664;23.346;2023-03-21T03:22:47;94338.47;;;10.45;75.03
6680;BME280;3376;42.664;23.346;2023-03-21T03:25:18;94332.91;;;10.34;75.20
6680;BME280;3376;42.664;23.346;2023-03-21T03:27:48;94336.56;;;10.39;75.48
6680;BME280;3376;42.664;23.346;2023-03-21T03:30:16;94332.97;;;10.40;75.25
6680;BME280;3376;42.664;23.346;2023-03-21T03:32:46;94302.91;;;10.10;75.06
6680;BME280;3376;42.664;23.346;2023-03-21T03:35:16;94332.38;;;10.09;75.68
6680;BME280;3376;42.664;23.346;2023-03-21T03:37:45;94295.00;;;9.75;76.03
6680;BME280;3376;42.664;23.346;2023-03-21T03:40:19;94335.16;;;9.85;77.24
6680;BME280;3376;42.664;23.346;2023-03-21T03:42:51;94332.78;;;9.76;77.61
6680;BME280;3376;42.664;23.346;2023-03-21T03:45:25;94336.28;;;9.68;78.19
6680;BME280;3376;42.664;23.346;2023-03-21T03:47:59;94335.13;;;9.48;79.59
6680;BME280;3376;42.664;23.346;2023-03-21T03:50:31;94268.16;;;8.93;81.09
6680;BME280;3376;42.664;23.346;2023-03-21T03:53:04;94326.94;;;9.22;81.90
6680;BME280;3376;42.664;23.346;2023-03-21T03:55:34;94142.31;;;8.11;81.23
6680;BME280;3376;42.664;23.346;2023-03-21T03:58:01;94339.38;;;9.41;80.83
6680;BME280;3376;42.664;23.346;2023-03-21T04:00:30;94338.34;;;9.27;81.63
6680;BME280;3376;42.664;23.346;2023-03-21T04:02:58;94325.25;;;9.06;81.90
6680;BME280;3376;42.664;23.346;2023-03-21T04:05:25;94308.72;;;8.85;82.63
6680;BME280;3376;42.664;23.346;2023-03-21T04:07:52;94302.63;;;8.78;83.27
6680;BME280;3376;42.664;23.346;2023-03-21T04:10:20;94335.00;;;8.96;83.50
6680;BME280;3376;42.664;23.346;2023-03-21T04:12:48;94344.00;;;9.00;83.54
6680;BME280;3376;42.664;23.346;2023-03-21T04:15:15;94331.25;;;8.99;83.38
6680;BME280;3376;42.664;23.346;2023-03-21T04:17:44;94320.28;;;8.97;82.55
6680;BME280;3376;42.664;23.346;2023-03-21T04:20:11;94327.53;;;9.01;82.93
6680;BME280;3376;42.664;23.346;2023-03-21T04:22:38;94341.22;;;9.10;82.74
6680;BME280;3376;42.664;23.346;2023-03-21T04:25:06;94329.09;;;9.10;81.84
6680;BME280;3376;42.664;23.346;2023-03-21T04:27:33;94327.94;;;9.13;81.58
6680;BME280;3376;42.664;23.346;2023-03-21T04:30:01;94303.13;;;9.04;81.93
6680;BME280;3376;42.664;23.346;2023-03-21T04:32:27;94296.88;;;8.98;81.61
6680;BME280;3376;42.664;23.346;2023-03-21T04:34:58;94324.34;;;9.22;81.42
6680;BME280;3376;42.664;23.346;2023-03-21T04:37:25;94333.41;;;9.18;81.19
6680;BME280;3376;42.664;23.346;2023-03-21T04:39:52;94327.38;;;9.25;81.46
6680;BME280;3376;42.664;23.346;2023-03-21T04:42:19;94338.13;;;9.37;80.96
6680;BME280;3376;42.664;23.346;2023-03-21T04:44:46;94325.03;;;9.38;79.90
6680;BME280;3376;42.664;23.346;2023-03-21T04:47:15;94330.59;;;9.50;80.11
6680;BME280;3376;42.664;23.346;2023-03-21T04:49:44;94332.44;;;9.41;79.87
6680;BME280;3376;42.664;23.346;2023-03-21T04:52:12;94317.06;;;9.25;81.26
6680;BME280;3376;42.664;23.346;2023-03-21T04:54:39;94333.81;;;9.29;81.86
6680;BME280;3376;42.664;23.346;2023-03-21T04:57:06;94339.09;;;9.36;82.24
6680;BME280;3376;42.664;23.346;2023-03-21T04:59:33;94343.97;;;9.31;81.06
6680;BME280;3376;42.664;23.346;2023-03-21T05:02:00;94345.03;;;9.22;80.75
6680;BME280;3376;42.664;23.346;2023-03-21T05:04:28;94318.00;;;9.02;80.74
6680;BME280;3376;42.664;23.346;2023-03-21T05:06:56;94148.00;;;7.99;80.95
6680;BME280;3376;42.664;23.346;2023-03-21T05:09:23;94347.31;;;9.17;82.19
6680;BME280;3376;42.664;23.346;2023-03-21T05:11:51;94345.63;;;9.24;82.18
6680;BME280;3376;42.664;23.346;2023-03-21T05:14:19;94350.19;;;9.22;82.30
6680;BME280;3376;42.664;23.346;2023-03-21T05:16:47;94279.75;;;8.75;82.49
6680;BME280;3376;42.664;23.346;2023-03-21T05:19:18;94324.78;;;9.03;82.45
6680;BME280;3376;42.664;23.346;2023-03-21T05:21:46;94354.91;;;9.18;81.94
6680;BME280;3376;42.664;23.346;2023-03-21T05:24:14;94356.09;;;9.30;81.93
6680;BME280;3376;42.664;23.346;2023-03-21T05:26:42;94356.50;;;9.42;80.98
6680;BME280;3376;42.664;23.346;2023-03-21T05:29:15;94340.63;;;9.45;80.89
6680;BME280;3376;42.664;23.346;2023-03-21T05:31:42;94349.78;;;9.56;80.09
6680;BME280;3376;42.664;23.346;2023-03-21T05:34:09;94343.78;;;9.55;80.63
6680;BME280;3376;42.664;23.346;2023-03-21T05:36:36;94343.91;;;9.62;80.45
6680;BME280;3376;42.664;23.346;2023-03-21T05:39:05;94354.66;;;9.73;80.22
6680;BME280;3376;42.664;23.346;2023-03-21T05:41:32;94306.81;;;9.55;79.93
6680;BME280;3376;42.664;23.346;2023-03-21T05:43:58;94358.44;;;9.85;82.06
6680;BME280;3376;42.664;23.346;2023-03-21T05:46:26;94351.63;;;9.84;80.78
6680;BME280;3376;42.664;23.346;2023-03-21T05:48:53;94339.91;;;9.74;79.71
6680;BME280;3376;42.664;23.346;2023-03-21T05:51:20;94350.06;;;9.98;79.75
6680;BME280;3376;42.664;23.346;2023-03-21T05:53:47;94346.09;;;10.10;79.68
6680;BME280;3376;42.664;23.346;2023-03-21T05:56:15;94338.00;;;10.27;78.94
6680;BME280;3376;42.664;23.346;2023-03-21T05:58:42;94332.00;;;10.56;76.31
6680;BME280;3376;42.664;23.346;2023-03-21T06:01:09;94327.78;;;10.69;74.78
6680;BME280;3376;42.664;23.346;2023-03-21T06:03:36;94330.38;;;10.84;74.38
6680;BME280;3376;42.664;23.346;2023-03-21T06:06:03;94318.22;;;10.85;74.96
6680;BME280;3376;42.664;23.346;2023-03-21T06:08:30;94334.91;;;11.18;73.87
6680;BME280;3376;42.664;23.346;2023-03-21T06:10:57;94315.50;;;11.28;73.82
6680;BME280;3376;42.664;23.346;2023-03-21T06:13:25;94324.25;;;11.48;73.48
6680;BME280;3376;42.664;23.346;2023-03-21T06:15:52;94318.38;;;11.61;72.93
6680;BME280;3376;42.664;23.346;2023-03-21T06:18:19;94327.31;;;11.73;72.62
6680;BME280;3376;42.664;23.346;2023-03-21T06:20:45;94326.00;;;11.83;72.05
6680;BME280;3376;42.664;23.346;2023-03-21T06:23:12;94323.50;;;11.97;71.32
6680;BME280;3376;42.664;23.346;2023-03-21T06:25:40;94315.44;;;12.13;70.70
6680;BME280;3376;42.664;23.346;2023-03-21T06:28:06;94315.69;;;12.24;70.37
6680;BME280;3376;42.664;23.346;2023-03-21T06:30:34;94320.22;;;12.43;69.93
6680;BME280;3376;42.664;23.346;2023-03-21T06:33:01;94322.88;;;12.56;68.80
6680;BME280;3376;42.664;23.346;2023-03-21T06:35:28;94312.34;;;12.64;67.81
6680;BME280;3376;42.664;23.346;2023-03-21T06:37:55;94313.19;;;12.71;67.07
6680;BME280;3376;42.664;23.346;2023-03-21T06:40:23;94298.78;;;12.75;65.86
6680;BME280;3376;42.664;23.346;2023-03-21T06:42:49;94322.94;;;13.10;64.59
6680;BME280;3376;42.664;23.346;2023-03-21T06:45:16;94131.47;;;12.10;62.62
6680;BME280;3376;42.664;23.346;2023-03-21T06:47:44;94331.25;;;13.59;61.44
6680;BME280;3376;42.664;23.346;2023-03-21T06:50:11;94328.88;;;13.64;61.16
6680;BME280;3376;42.664;23.346;2023-03-21T06:52:38;94334.09;;;13.90;60.73
6680;BME280;3376;42.664;23.346;2023-03-21T06:55:06;94338.28;;;14.11;59.75
6680;BME280;3376;42.664;23.346;2023-03-21T06:57:33;94178.31;;;13.29;58.96
6680;BME280;3376;42.664;23.346;2023-03-21T07:00:00;94347.94;;;14.43;58.08
6680;BME280;3376;42.664;23.346;2023-03-21T07:02:29;94335.09;;;14.48;57.61
6680;BME280;3376;42.664;23.346;2023-03-21T07:04:58;94345.50;;;14.55;57.25
6680;BME280;3376;42.664;23.346;2023-03-21T07:07:24;94318.44;;;14.49;56.75
6680;BME280;3376;42.664;23.346;2023-03-21T07:09:53;94351.81;;;14.91;56.92
6680;BME280;3376;42.664;23.346;2023-03-21T07:12:21;94353.72;;;15.15;55.01
6680;BME280;3376;42.664;23.346;2023-03-21T07:14:48;94343.63;;;15.25;54.34
6680;BME280;3376;42.664;23.346;2023-03-21T07:17:15;94341.59;;;15.34;53.01
6680;BME280;3376;42.664;23.346;2023-03-21T07:19:41;94160.75;;;14.21;52.56
6680;BME280;3376;42.664;23.346;2023-03-21T07:22:09;94352.41;;;15.38;52.54
6680;BME280;3376;42.664;23.346;2023-03-21T07:24:36;94359.25;;;15.39;52.35
6680;BME280;3376;42.664;23.346;2023-03-21T07:27:03;94337.19;;;15.34;52.21
6680;BME280;3376;42.664;23.346;2023-03-21T07:29:30;94340.94;;;15.52;52.19
6680;BME280;3376;42.664;23.346;2023-03-21T07:31:56;94349.53;;;15.59;52.05
6680;BME280;3376;42.664;23.346;2023-03-21T07:34:23;94343.50;;;15.58;52.45
6680;BME280;3376;42.664;23.346;2023-03-21T07:36:51;94335.88;;;15.57;52.25
6680;BME280;3376;42.664;23.346;2023-03-21T07:39:19;94346.28;;;15.63;53.31
6680;BME280;3376;42.664;23.346;2023-03-21T07:41:48;94345.66;;;15.68;53.73
6680;BME280;3376;42.664;23.346;2023-03-21T07:44:15;94350.25;;;15.72;55.35
6680;BME280;3376;42.664;23.346;2023-03-21T07:46:41;94328.56;;;15.72;55.79
6680;BME280;3376;42.664;23.346;2023-03-21T07:49:08;94143.72;;;14.62;55.89
6680;BME280;3376;42.664;23.346;2023-03-21T07:51:35;94326.50;;;15.80;55.36
6680;BME280;3376;42.664;23.346;2023-03-21T07:54:02;94340.28;;;15.87;58.74
6680;BME280;3376;42.664;23.346;2023-03-21T07:56:30;94285.66;;;15.61;66.05
6680;BME280;3376;42.664;23.346;2023-03-21T07:58:57;94352.94;;;16.15;62.93
6680;BME280;3376;42.664;23.346;2023-03-21T08:01:24;94350.63;;;16.31;59.45
6680;BME280;3376;42.664;23.346;2023-03-21T08:03:51;94332.53;;;16.30;65.65
6680;BME280;3376;42.664;23.346;2023-03-21T08:06:18;94348.91;;;16.43;58.84
6680;BME280;3376;42.664;23.346;2023-03-21T08:08:45;94349.63;;;16.57;56.80
6680;BME280;3376;42.664;23.346;2023-03-21T08:11:12;94346.41;;;16.55;56.82
6680;BME280;3376;42.664;23.346;2023-03-21T08:13:40;94348.81;;;16.57;58.30
6680;BME280;3376;42.664;23.346;2023-03-21T08:16:08;94275.63;;;16.07;52.80
6680;BME280;3376;42.664;23.346;2023-03-21T08:18:34;94313.50;;;16.23;50.13
6680;BME280;3376;42.664;23.346;2023-03-21T08:21:01;94351.72;;;16.42;49.50
6680;BME280;3376;42.664;23.346;2023-03-21T08:23:28;94330.19;;;16.22;49.70
6680;BME280;3376;42.664;23.346;2023-03-21T08:25:56;94336.75;;;16.31;49.26
6680;BME280;3376;42.664;23.346;2023-03-21T08:28:23;94335.47;;;16.40;49.87
6680;BME280;3376;42.664;23.346;2023-03-21T08:30:51;94331.66;;;16.36;48.48
6680;BME280;3376;42.664;23.346;2023-03-21T08:33:19;94315.78;;;16.13;48.07
6680;BME280;3376;42.664;23.346;2023-03-21T08:35:46;94334.78;;;16.26;48.83
6680;BME280;3376;42.664;23.346;2023-03-21T08:38:13;94298.84;;;15.97;47.81
6680;BME280;3376;42.664;23.346;2023-03-21T08:40:40;94343.69;;;16.19;47.72
6680;BME280;3376;42.664;23.346;2023-03-21T08:43:07;94324.94;;;16.22;47.39
6680;BME280;3376;42.664;23.346;2023-03-21T08:45:34;94343.31;;;16.15;46.65
6680;BME280;3376;42.664;23.346;2023-03-21T08:48:03;94343.72;;;15.88;46.94
6680;BME280;3376;42.664;23.346;2023-03-21T08:50:30;94343.44;;;15.96;47.10
6680;BME280;3376;42.664;23.346;2023-03-21T08:52:57;94331.09;;;15.85;47.89
6680;BME280;3376;42.664;23.346;2023-03-21T08:55:24;94337.16;;;16.03;47.41
6680;BME280;3376;42.664;23.346;2023-03-21T08:57:51;94337.09;;;16.10;47.49
6680;BME280;3376;42.664;23.346;2023-03-21T09:00:18;94324.19;;;16.15;47.49
6680;BME280;3376;42.664;23.346;2023-03-21T09:02:47;94330.84;;;16.35;46.83
6680;BME280;3376;42.664;23.346;2023-03-21T09:05:17;94307.97;;;16.31;45.06
6680;BME280;3376;42.664;23.346;2023-03-21T09:07:45;94330.34;;;16.52;45.28
6680;BME280;3376;42.664;23.346;2023-03-21T09:10:15;94328.16;;;16.49;45.25
6680;BME280;3376;42.664;23.346;2023-03-21T09:12:42;94303.56;;;16.31;45.66
6680;BME280;3376;42.664;23.346;2023-03-21T09:15:10;94320.53;;;16.47;46.01
6680;BME280;3376;42.664;23.346;2023-03-21T09:17:37;94317.50;;;16.50;45.92
6680;BME280;3376;42.664;23.346;2023-03-21T09:20:09;94319.16;;;16.63;45.17
6680;BME280;3376;42.664;23.346;2023-03-21T09:22:44;94314.13;;;16.61;44.43
6680;BME280;3376;42.664;23.346;2023-03-21T09:25:11;94308.84;;;16.86;44.81
6680;BME280;3376;42.664;23.346;2023-03-21T09:27:38;94303.81;;;17.02;44.44
6680;BME280;3376;42.664;23.346;2023-03-21T09:30:06;94283.09;;;17.19;43.53
6680;BME280;3376;42.664;23.346;2023-03-21T09:32:34;94295.03;;;17.44;43.07
6680;BME280;3376;42.664;23.346;2023-03-21T09:35:02;94248.50;;;17.28;43.05
6680;BME280;3376;42.664;23.346;2023-03-21T09:37:30;94291.00;;;17.60;42.61
6680;BME280;3376;42.664;23.346;2023-03-21T09:39:59;94291.63;;;17.74;42.50
6680;BME280;3376;42.664;23.346;2023-03-21T09:42:38;94282.72;;;17.75;41.96
6680;BME280;3376;42.664;23.346;2023-03-21T09:45:13;94259.75;;;17.47;43.27
6680;BME280;3376;42.664;23.346;2023-03-21T09:47:44;93954.41;;;15.65;44.14
6680;BME280;3376;42.664;23.346;2023-03-21T09:50:19;94266.41;;;17.73;43.62
6680;BME280;3376;42.664;23.346;2023-03-21T09:52:55;94279.34;;;17.97;42.63
6680;BME280;3376;42.664;23.346;2023-03-21T09:55:26;94259.41;;;18.08;41.89
6680;BME280;3376;42.664;23.346;2023-03-21T09:58:00;94278.22;;;18.39;41.41
6680;BME280;3376;42.664;23.346;2023-03-21T10:00:34;94275.84;;;18.61;41.29
6680;BME280;3376;42.664;23.346;2023-03-21T10:03:04;94215.50;;;18.26;41.22
6680;BME280;3376;42.664;23.346;2023-03-21T10:05:35;94275.00;;;18.84;40.93
6680;BME280;3376;42.664;23.346;2023-03-21T10:08:07;94270.28;;;18.97;40.82
6680;BME280;3376;42.664;23.346;2023-03-21T10:10:38;94261.81;;;19.07;40.45
6680;BME280;3376;42.664;23.346;2023-03-21T10:13:13;94212.94;;;18.77;40.46
6680;BME280;3376;42.664;23.346;2023-03-21T10:15:40;94223.88;;;19.14;40.58
6680;BME280;3376;42.664;23.346;2023-03-21T10:18:12;94250.53;;;19.62;39.63
6680;BME280;3376;42.664;23.346;2023-03-21T10:20:42;94248.94;;;20.11;38.82
6680;BME280;3376;42.664;23.346;2023-03-21T10:23:12;94221.91;;;20.32;38.00
6680;BME280;3376;42.664;23.346;2023-03-21T10:25:43;94246.38;;;20.71;38.23
6680;BME280;3376;42.664;23.346;2023-03-21T10:28:15;94241.03;;;21.04;37.63
6680;BME280;3376;42.664;23.346;2023-03-21T10:30:44;94238.75;;;21.39;37.06
6680;BME280;3376;42.664;23.346;2023-03-21T10:33:14;94252.31;;;21.74;36.35
6680;BME280;3376;42.664;23.346;2023-03-21T10:35:45;94245.69;;;21.98;35.21
6680;BME280;3376;42.664;23.346;2023-03-21T10:38:15;94244.63;;;21.99;33.98
6680;BME280;3376;42.664;23.346;2023-03-21T10:40:45;94241.16;;;21.94;32.97
6680;BME280;3376;42.664;23.346;2023-03-21T10:43:18;94250.03;;;21.83;33.17
6680;BME280;3376;42.664;23.346;2023-03-21T10:45:47;94255.28;;;21.56;33.79
6680;BME280;3376;42.664;23.346;2023-03-21T10:48:14;94242.09;;;21.56;34.02
6680;BME280;3376;42.664;23.346;2023-03-21T10:50:41;94218.38;;;21.30;34.05
6680;BME280;3376;42.664;23.346;2023-03-21T10:53:16;94239.16;;;21.26;34.68
6680;BME280;3376;42.664;23.346;2023-03-21T10:55:47;94248.75;;;21.32;34.41
6680;BME280;3376;42.664;23.346;2023-03-21T10:58:19;94238.56;;;21.19;34.66
6680;BME280;3376;42.664;23.346;2023-03-21T11:00:54;94237.94;;;21.12;34.55
6680;BME280;3376;42.664;23.346;2023-03-21T11:03:26;94228.72;;;21.10;34.41
6680;BME280;3376;42.664;23.346;2023-03-21T11:06:05;94188.34;;;21.04;34.21
6680;BME280;3376;42.664;23.346;2023-03-21T11:08:37;94220.31;;;20.91;35.24
6680;BME280;3376;42.664;23.346;2023-03-21T11:11:08;94215.97;;;20.80;35.58
6680;BME280;3376;42.664;23.346;2023-03-21T11:13:38;94223.25;;;20.94;34.79
6680;BME280;3376;42.664;23.346;2023-03-21T11:16:08;94215.91;;;20.75;34.48
6680;BME280;3376;42.664;23.346;2023-03-21T11:18:40;94216.56;;;20.87;33.99
6680;BME280;3376;42.664;23.346;2023-03-21T11:21:09;94218.84;;;20.78;33.99
6680;BME280;3376;42.664;23.346;2023-03-21T11:23:40;94214.91;;;20.81;33.48
6680;BME280;3376;42.664;23.346;2023-03-21T11:26:15;94212.34;;;20.86;33.49
6680;BME280;3376;42.664;23.346;2023-03-21T11:28:43;94199.94;;;21.03;32.98
6680;BME280;3376;42.664;23.346;2023-03-21T11:31:11;94192.75;;;21.20;33.10
6680;BME280;3376;42.664;23.346;2023-03-21T11:33:41;94195.44;;;21.25;33.33
6680;BME280;3376;42.664;23.346;2023-03-21T11:36:26;94183.59;;;21.01;33.95
6680;BME280;3376;42.664;23.346;2023-03-21T11:39:01;94192.44;;;20.95;33.51
6680;BME280;3376;42.664;23.346;2023-03-21T11:41:32;94151.53;;;20.87;33.14
6680;BME280;3376;42.664;23.346;2023-03-21T11:44:00;94137.97;;;20.52;34.44
6680;BME280;3376;42.664;23.346;2023-03-21T11:46:28;94071.63;;;20.07;34.44
6680;BME280;3376;42.664;23.346;2023-03-21T11:48:57;94136.78;;;20.43;34.54
6680;BME280;3376;42.664;23.346;2023-03-21T11:51:30;94167.91;;;20.68;34.09
6680;BME280;3376;42.664;23.346;2023-03-21T11:54:06;94123.94;;;20.47;33.10
6680;BME280;3376;42.664;23.346;2023-03-21T11:56:39;94176.53;;;20.63;33.57
6680;BME280;3376;42.664;23.346;2023-03-21T11:59:29;94168.69;;;20.47;34.01
6680;BME280;3376;42.664;23.346;2023-03-21T12:02:10;94163.84;;;20.39;33.48
6680;BME280;3376;42.664;23.346;2023-03-21T12:04:45;94166.19;;;20.57;33.55
6680;BME280;3376;42.664;23.346;2023-03-21T12:07:24;94168.75;;;20.52;34.58
6680;BME280;3376;42.664;23.346;2023-03-21T12:10:02;94165.31;;;20.30;33.86
6680;BME280;3376;42.664;23.346;2023-03-21T12:12:46;94152.09;;;20.25;34.76
6680;BME280;3376;42.664;23.346;2023-03-21T12:15:21;94152.91;;;20.09;34.49
6680;BME280;3376;42.664;23.346;2023-03-21T12:17:58;94148.19;;;20.11;34.33
6680;BME280;3376;42.664;23.346;2023-03-21T12:20:38;94150.59;;;20.12;34.16
6680;BME280;3376;42.664;23.346;2023-03-21T12:26:16;94152.34;;;20.07;33.98
6680;BME280;3376;42.664;23.346;2023-03-21T12:29:05;94141.75;;;20.02;34.40
6680;BME280;3376;42.664;23.346;2023-03-21T12:31:47;94132.94;;;19.91;34.16
6680;BME280;3376;42.664;23.346;2023-03-21T12:34:26;94144.13;;;20.20;33.96
6680;BME280;3376;42.664;23.346;2023-03-21T12:37:12;94132.53;;;20.16;34.02
6680;BME280;3376;42.664;23.346;2023-03-21T12:39:45;94133.97;;;20.28;34.05
6680;BME280;3376;42.664;23.346;2023-03-21T12:42:35;94129.84;;;20.32;33.83
6680;BME280;3376;42.664;23.346;2023-03-21T12:45:11;94127.69;;;20.51;33.06
6680;BME280;3376;42.664;23.346;2023-03-21T12:47:40;94125.06;;;20.51;33.04
6680;BME280;3376;42.664;23.346;2023-03-21T12:50:14;94127.78;;;20.61;33.06
6680;BME280;3376;42.664;23.346;2023-03-21T12:52:47;94126.50;;;20.42;33.45
6680;BME280;3376;42.664;23.346;2023-03-21T12:55:19;94121.25;;;20.42;33.36
6680;BME280;3376;42.664;23.346;2023-03-21T12:57:49;94106.81;;;20.23;33.33
6680;BME280;3376;42.664;23.346;2023-03-21T13:00:22;94110.00;;;20.25;33.23
6680;BME280;3376;42.664;23.346;2023-03-21T13:02:54;94107.91;;;19.88;33.83
6680;BME280;3376;42.664;23.346;2023-03-21T13:05:27;94091.44;;;19.76;34.32
6680;BME280;3376;42.664;23.346;2023-03-21T13:07:59;94098.94;;;19.84;34.22
6680;BME280;3376;42.664;23.346;2023-03-21T13:10:29;94090.91;;;19.74;34.35
6680;BME280;3376;42.664;23.346;2023-03-21T13:13:08;94095.59;;;19.72;34.54
6680;BME280;3376;42.664;23.346;2023-03-21T13:15:46;94097.22;;;19.57;34.65
6680;BME280;3376;42.664;23.346;2023-03-21T13:18:24;94085.91;;;19.56;34.85
6680;BME280;3376;42.664;23.346;2023-03-21T13:20:56;94090.34;;;19.56;35.06
6680;BME280;3376;42.664;23.346;2023-03-21T13:23:24;93771.63;;;17.48;35.53
6680;BME280;3376;42.664;23.346;2023-03-21T13:25:53;94056.28;;;19.11;36.10
6680;BME280;3376;42.664;23.346;2023-03-21T13:28:25;94085.72;;;19.13;36.27
6680;BME280;3376;42.664;23.346;2023-03-21T13:31:14;94089.38;;;19.12;36.79
6680;BME280;3376;42.664;23.346;2023-03-21T13:33:45;94083.00;;;19.08;36.42
6680;BME280;3376;42.664;23.346;2023-03-21T13:36:14;94081.72;;;18.94;36.82
6680;BME280;3376;42.664;23.346;2023-03-21T13:38:48;94082.19;;;18.91;37.05
6680;BME280;3376;42.664;23.346;2023-03-21T13:41:19;94072.19;;;18.88;37.77